CYXJ

Fort St John Airport

Fort St.John, British Columbia, Canada
TAF CYXJ 260038Z 2601/2613 24015G25KT P6SM SCT220 BECMG 2605/2607 24010KT RMK NXT FCST BY 260700Z
Issued Valid From Valid To
Apr-26 @ 00:38 UTC
(5 hours ago)
Apr-26 @ 01:00 UTC
(5 hours ago)
Apr-26 @ 13:00 UTC
(in 7 hours)
Expired Click to View Apr-26 @ 01:00 to Apr-26 @ 05:00
TAF CYXJ 260038Z 2601/2613 24015G25KT P6SM SCT220
Wind Visibility Clouds
240° at 15 knots
 Gusting to 25 knots
Greater than 6 miles
  • Scattered at 22,000' AGL
Becoming Apr-26 @ 05:00 to Apr-26 @ 13:00
BECMG 2605/2607 24010KT RMK NXT FCST BY 260700Z
Wind Visibility Clouds
240° at 10 knots Greater than 6 miles
  • Scattered at 22,000' AGL
TAF CYXJ 260038Z 2601/2613 24015G25KT P6SM SCT220 BECMG 2605/2607 24010KT RMK NXT FCST BY 260700Z
Issued Apr-26 @ 00:38 UTC
(5 hours ago)
Valid From Apr-26 @ 01:00 UTC
(5 hours ago)
Valid To Apr-26 @ 13:00 UTC
(in 7 hours)
Apr-26 @ 01:00 - Apr-26 @ 05:00
Wind Visibility
240° at 15 knots
 Gusting to 25 knots
Greater than 6 miles
Clouds
  • Scattered at 22,000' AGL
Becoming Apr-26 @ 05:00 - Apr-26 @ 13:00
Wind Visibility
240° at 10 knots Greater than 6 miles
Clouds
  • Scattered at 22,000' AGL